Anchorage, AK

05:31 PM AKST ar Rhagfyr 17, 2014 (GMT -0900)
Merrill | Change Station
CLOSE
Current Station
Airport
Location: Anchorage Merrill,
Elevation: 135 ft
Nearby Weather Stations

Elev 135 ft 61.22 °N, 149.85 °W | Updated 38 minutes ago

Scattered Clouds
Cymylau Gwasgaredig
31 °F
Feels Like 28 °F
N
4
Gwynt Cyfnewidiol Gwynt from Cyfnewidiol

Heddiw
High -- | Low -- °F
--% Chance of Precip.
Yesterday
High -- | Low -- °F
Precip. -- mod
10:11 AM 3:40 PM
Waning Crescent, 18% visible
Gwasgedd 29.57 mod
Gwelededd 10.0 Milltiroedd
Clouds Few 200 ft
Cymylau Gwasgaredig 9000 ft
Oerfel Gwynt 28 °F
Gwlithbwynt 26 °F
Lleithder 82%
Rainfall 0.00 mod
Snow Depth Not available.
UV 0 out of 12
Pollen Not available.
Air Quality Not available.
Flu Activity Not available.
METAR PAMR 180153Z VRB03KT 10SM FEW002 SCT090 M01/M03 A2956 RMK AO2 SLP013 T10061033

More Conditions Fewer Conditions

Gwasgedd 29.57 mod
Gwelededd 10.0 Milltiroedd
Clouds Few 200 ft
Cymylau Gwasgaredig 9000 ft
Oerfel Gwynt 28 °F
Gwlithbwynt 26 °F
Lleithder 82%
Rainfall 0.00 mod
Snow Depth Not available.
UV 0 out of 12
Pollen Not available.
Air Quality Not available.
Flu Activity Not available.
METAR PAMR 180153Z VRB03KT 10SM FEW002 SCT090 M01/M03 A2956 RMK AO2 SLP013 T10061033

More Conditions Fewer Conditions

10-Day Weather Forecast

Almanac

Astronomy

Dec. 17, 2014 Rise Set
Actual Time
Civil Twilight
Nautical Twilight
Astronomical Twilight
Moon
Length Of Visible Light
Length of Day
Tomorrow will be .
, % of the Moon is Illuminated

Today's Extremes

State Highs State Lows

Community

WunderPhotos

Upload Photos

1,778,862 photos uploaded!

WunderBlogs® & News

Nearby

Air Quality

  Air Quality AQ Index Pollutant
Not available.

Snow Depth

Station Depth Elevation

Earthquake Activity

City Distance Mag. Time & Date
Minimum magnitude displayed is 2.5.

Coastal Water Temperatures

Lle Tymheredd

Nearby Weather Stations